sensor_id;sensor_type;location;lat;lon;timestamp;P1;durP1;ratioP1;P2;durP2;ratioP2
37641;SDS011;23486;51.956;5.888;2023-02-03T00:02:11;23.10;;;3.00;;
37641;SDS011;23486;51.956;5.888;2023-02-03T00:04:37;17.95;;;2.00;;
37641;SDS011;23486;51.956;5.888;2023-02-03T00:07:03;20.00;;;2.55;;
37641;SDS011;23486;51.956;5.888;2023-02-03T00:09:29;15.75;;;1.73;;
37641;SDS011;23486;51.956;5.888;2023-02-03T00:11:57;15.10;;;1.98;;
37641;SDS011;23486;51.956;5.888;2023-02-03T00:14:23;19.58;;;2.83;;
37641;SDS011;23486;51.956;5.888;2023-02-03T00:16:48;8.88;;;1.60;;
37641;SDS011;23486;51.956;5.888;2023-02-03T00:19:14;14.82;;;1.60;;
37641;SDS011;23486;51.956;5.888;2023-02-03T00:21:39;12.10;;;2.13;;
37641;SDS011;23486;51.956;5.888;2023-02-03T00:24:05;15.07;;;1.75;;
37641;SDS011;23486;51.956;5.888;2023-02-03T00:26:31;10.27;;;1.17;;
37641;SDS011;23486;51.956;5.888;2023-02-03T00:28:57;13.48;;;1.67;;
37641;SDS011;23486;51.956;5.888;2023-02-03T00:31:23;19.75;;;2.33;;
37641;SDS011;23486;51.956;5.888;2023-02-03T00:33:52;17.38;;;1.67;;
37641;SDS011;23486;51.956;5.888;2023-02-03T00:36:22;8.52;;;1.30;;
37641;SDS011;23486;51.956;5.888;2023-02-03T00:38:49;11.45;;;1.58;;
37641;SDS011;23486;51.956;5.888;2023-02-03T00:41:15;12.88;;;1.42;;
37641;SDS011;23486;51.956;5.888;2023-02-03T00:43:41;17.05;;;1.60;;
37641;SDS011;23486;51.956;5.888;2023-02-03T00:46:06;20.98;;;2.75;;
37641;SDS011;23486;51.956;5.888;2023-02-03T00:48:32;16.27;;;1.80;;
37641;SDS011;23486;51.956;5.888;2023-02-03T00:50:58;16.13;;;2.30;;
37641;SDS011;23486;51.956;5.888;2023-02-03T00:53:23;11.43;;;1.90;;
37641;SDS011;23486;51.956;5.888;2023-02-03T00:55:49;14.77;;;2.25;;
37641;SDS011;23486;51.956;5.888;2023-02-03T00:58:16;17.05;;;1.25;;
37641;SDS011;23486;51.956;5.888;2023-02-03T01:00:41;13.10;;;2.00;;
37641;SDS011;23486;51.956;5.888;2023-02-03T01:03:07;18.83;;;2.72;;
37641;SDS011;23486;51.956;5.888;2023-02-03T01:05:32;10.25;;;1.67;;
37641;SDS011;23486;51.956;5.888;2023-02-03T01:07:59;16.98;;;1.77;;
37641;SDS011;23486;51.956;5.888;2023-02-03T01:10:25;13.52;;;1.88;;
37641;SDS011;23486;51.956;5.888;2023-02-03T01:12:51;16.58;;;3.30;;
37641;SDS011;23486;51.956;5.888;2023-02-03T01:15:16;19.17;;;2.45;;
37641;SDS011;23486;51.956;5.888;2023-02-03T01:17:42;15.50;;;1.95;;
37641;SDS011;23486;51.956;5.888;2023-02-03T01:20:08;9.30;;;1.35;;
37641;SDS011;23486;51.956;5.888;2023-02-03T01:22:36;18.70;;;3.30;;
37641;SDS011;23486;51.956;5.888;2023-02-03T01:25:02;10.82;;;2.08;;
37641;SDS011;23486;51.956;5.888;2023-02-03T01:27:31;11.18;;;2.13;;
37641;SDS011;23486;51.956;5.888;2023-02-03T01:29:57;13.27;;;2.03;;
37641;SDS011;23486;51.956;5.888;2023-02-03T01:32:23;15.02;;;2.08;;
37641;SDS011;23486;51.956;5.888;2023-02-03T01:34:49;13.60;;;2.17;;
37641;SDS011;23486;51.956;5.888;2023-02-03T01:37:14;12.18;;;1.25;;
37641;SDS011;23486;51.956;5.888;2023-02-03T01:39:42;15.50;;;1.75;;
37641;SDS011;23486;51.956;5.888;2023-02-03T01:42:11;15.85;;;2.00;;
37641;SDS011;23486;51.956;5.888;2023-02-03T01:52:38;11.80;;;1.63;;
37641;SDS011;23486;51.956;5.888;2023-02-03T01:55:07;10.98;;;1.83;;
37641;SDS011;23486;51.956;5.888;2023-02-03T01:57:37;13.40;;;1.60;;
37641;SDS011;23486;51.956;5.888;2023-02-03T02:00:06;14.55;;;2.05;;
37641;SDS011;23486;51.956;5.888;2023-02-03T02:02:33;12.25;;;1.60;;
37641;SDS011;23486;51.956;5.888;2023-02-03T02:07:58;14.25;;;1.77;;
37641;SDS011;23486;51.956;5.888;2023-02-03T02:10:24;14.05;;;1.75;;
37641;SDS011;23486;51.956;5.888;2023-02-03T02:12:50;10.75;;;1.73;;
37641;SDS011;23486;51.956;5.888;2023-02-03T02:15:18;12.32;;;1.90;;
37641;SDS011;23486;51.956;5.888;2023-02-03T02:18:03;10.50;;;2.03;;
37641;SDS011;23486;51.956;5.888;2023-02-03T02:23:58;14.00;;;1.58;;
37641;SDS011;23486;51.956;5.888;2023-02-03T02:35:14;11.38;;;1.95;;
37641;SDS011;23486;51.956;5.888;2023-02-03T02:37:58;8.15;;;1.60;;
37641;SDS011;23486;51.956;5.888;2023-02-03T02:40:32;11.57;;;1.42;;
37641;SDS011;23486;51.956;5.888;2023-02-03T02:45:53;14.27;;;1.33;;
37641;SDS011;23486;51.956;5.888;2023-02-03T02:48:27;9.40;;;1.15;;
37641;SDS011;23486;51.956;5.888;2023-02-03T02:51:01;15.65;;;1.55;;
37641;SDS011;23486;51.956;5.888;2023-02-03T02:53:31;13.55;;;2.08;;
37641;SDS011;23486;51.956;5.888;2023-02-03T02:55:59;10.38;;;2.05;;
37641;SDS011;23486;51.956;5.888;2023-02-03T02:58:33;9.88;;;1.67;;
37641;SDS011;23486;51.956;5.888;2023-02-03T03:01:01;13.73;;;1.23;;
37641;SDS011;23486;51.956;5.888;2023-02-03T03:03:28;11.38;;;1.20;;
37641;SDS011;23486;51.956;5.888;2023-02-03T03:05:54;11.50;;;1.00;;
37641;SDS011;23486;51.956;5.888;2023-02-03T03:08:34;9.52;;;1.40;;
37641;SDS011;23486;51.956;5.888;2023-02-03T03:11:05;14.63;;;1.25;;
37641;SDS011;23486;51.956;5.888;2023-02-03T03:13:32;8.98;;;1.05;;
37641;SDS011;23486;51.956;5.888;2023-02-03T03:16:02;10.23;;;1.02;;
37641;SDS011;23486;51.956;5.888;2023-02-03T03:18:35;11.20;;;1.25;;
37641;SDS011;23486;51.956;5.888;2023-02-03T03:21:07;7.97;;;1.08;;
37641;SDS011;23486;51.956;5.888;2023-02-03T03:23:38;10.13;;;1.70;;
37641;SDS011;23486;51.956;5.888;2023-02-03T03:26:10;10.07;;;0.95;;
37641;SDS011;23486;51.956;5.888;2023-02-03T03:28:44;5.97;;;0.85;;
37641;SDS011;23486;51.956;5.888;2023-02-03T03:31:13;9.45;;;0.90;;
37641;SDS011;23486;51.956;5.888;2023-02-03T03:33:40;9.05;;;0.80;;
37641;SDS011;23486;51.956;5.888;2023-02-03T03:36:28;8.68;;;1.05;;
37641;SDS011;23486;51.956;5.888;2023-02-03T03:41:47;16.60;;;1.50;;
37641;SDS011;23486;51.956;5.888;2023-02-03T03:44:33;9.27;;;1.33;;
37641;SDS011;23486;51.956;5.888;2023-02-03T03:47:09;11.48;;;1.25;;
37641;SDS011;23486;51.956;5.888;2023-02-03T03:49:38;8.02;;;1.77;;
37641;SDS011;23486;51.956;5.888;2023-02-03T03:52:07;10.85;;;1.60;;
37641;SDS011;23486;51.956;5.888;2023-02-03T03:54:36;11.23;;;1.38;;
37641;SDS011;23486;51.956;5.888;2023-02-03T03:59:39;8.23;;;1.85;;
37641;SDS011;23486;51.956;5.888;2023-02-03T04:02:08;18.05;;;2.00;;
37641;SDS011;23486;51.956;5.888;2023-02-03T04:04:36;7.63;;;1.20;;
37641;SDS011;23486;51.956;5.888;2023-02-03T04:07:03;13.68;;;2.15;;
37641;SDS011;23486;51.956;5.888;2023-02-03T04:09:29;5.32;;;1.10;;
37641;SDS011;23486;51.956;5.888;2023-02-03T04:11:54;14.07;;;1.30;;
37641;SDS011;23486;51.956;5.888;2023-02-03T04:14:29;11.23;;;0.98;;
37641;SDS011;23486;51.956;5.888;2023-02-03T04:16:56;11.88;;;1.77;;
37641;SDS011;23486;51.956;5.888;2023-02-03T04:19:22;14.65;;;1.75;;
37641;SDS011;23486;51.956;5.888;2023-02-03T04:21:48;8.63;;;1.10;;
37641;SDS011;23486;51.956;5.888;2023-02-03T04:24:13;7.40;;;1.02;;
37641;SDS011;23486;51.956;5.888;2023-02-03T04:26:39;9.48;;;1.05;;
37641;SDS011;23486;51.956;5.888;2023-02-03T04:29:05;9.07;;;1.02;;
37641;SDS011;23486;51.956;5.888;2023-02-03T04:31:33;9.60;;;1.33;;
37641;SDS011;23486;51.956;5.888;2023-02-03T04:34:00;8.93;;;0.75;;
37641;SDS011;23486;51.956;5.888;2023-02-03T04:36:26;8.35;;;0.73;;
37641;SDS011;23486;51.956;5.888;2023-02-03T04:38:51;8.15;;;1.00;;
37641;SDS011;23486;51.956;5.888;2023-02-03T04:41:17;7.38;;;0.70;;
37641;SDS011;23486;51.956;5.888;2023-02-03T04:43:42;7.63;;;0.80;;
37641;SDS011;23486;51.956;5.888;2023-02-03T04:46:08;9.70;;;1.02;;
37641;SDS011;23486;51.956;5.888;2023-02-03T04:48:34;10.80;;;1.13;;
37641;SDS011;23486;51.956;5.888;2023-02-03T04:51:03;6.10;;;0.90;;
37641;SDS011;23486;51.956;5.888;2023-02-03T04:53:30;6.38;;;0.88;;
37641;SDS011;23486;51.956;5.888;2023-02-03T04:55:57;6.47;;;0.88;;
37641;SDS011;23486;51.956;5.888;2023-02-03T04:58:22;10.27;;;1.02;;
37641;SDS011;23486;51.956;5.888;2023-02-03T05:00:50;6.90;;;0.80;;
37641;SDS011;23486;51.956;5.888;2023-02-03T05:03:15;8.65;;;1.05;;
37641;SDS011;23486;51.956;5.888;2023-02-03T05:05:41;15.93;;;0.95;;
37641;SDS011;23486;51.956;5.888;2023-02-03T05:08:06;14.98;;;0.95;;
37641;SDS011;23486;51.956;5.888;2023-02-03T05:10:32;9.85;;;0.65;;
37641;SDS011;23486;51.956;5.888;2023-02-03T05:12:58;6.28;;;1.20;;
37641;SDS011;23486;51.956;5.888;2023-02-03T05:15:23;9.52;;;0.60;;
37641;SDS011;23486;51.956;5.888;2023-02-03T05:17:52;7.72;;;0.70;;
37641;SDS011;23486;51.956;5.888;2023-02-03T05:20:21;9.60;;;0.77;;
37641;SDS011;23486;51.956;5.888;2023-02-03T05:22:47;7.03;;;1.10;;
37641;SDS011;23486;51.956;5.888;2023-02-03T05:25:13;8.20;;;0.80;;
37641;SDS011;23486;51.956;5.888;2023-02-03T05:27:39;9.77;;;1.20;;
37641;SDS011;23486;51.956;5.888;2023-02-03T05:30:05;10.38;;;0.65;;
37641;SDS011;23486;51.956;5.888;2023-02-03T05:32:32;5.75;;;1.00;;
37641;SDS011;23486;51.956;5.888;2023-02-03T05:34:57;10.35;;;1.02;;
37641;SDS011;23486;51.956;5.888;2023-02-03T05:37:23;9.52;;;0.60;;
37641;SDS011;23486;51.956;5.888;2023-02-03T05:39:48;7.32;;;0.63;;
37641;SDS011;23486;51.956;5.888;2023-02-03T05:42:14;12.25;;;1.98;;
37641;SDS011;23486;51.956;5.888;2023-02-03T05:44:40;8.18;;;0.70;;
37641;SDS011;23486;51.956;5.888;2023-02-03T05:47:05;7.35;;;0.95;;
37641;SDS011;23486;51.956;5.888;2023-02-03T05:49:31;10.40;;;0.70;;
37641;SDS011;23486;51.956;5.888;2023-02-03T05:51:57;9.07;;;0.80;;
37641;SDS011;23486;51.956;5.888;2023-02-03T05:54:22;13.85;;;0.85;;
37641;SDS011;23486;51.956;5.888;2023-02-03T05:56:48;9.52;;;1.15;;
37641;SDS011;23486;51.956;5.888;2023-02-03T05:59:14;9.30;;;0.75;;
37641;SDS011;23486;51.956;5.888;2023-02-03T06:01:39;13.18;;;0.95;;
37641;SDS011;23486;51.956;5.888;2023-02-03T06:04:05;12.57;;;1.38;;
37641;SDS011;23486;51.956;5.888;2023-02-03T06:06:31;12.50;;;1.65;;
37641;SDS011;23486;51.956;5.888;2023-02-03T06:09:04;10.65;;;0.90;;
37641;SDS011;23486;51.956;5.888;2023-02-03T06:11:31;9.50;;;0.77;;
37641;SDS011;23486;51.956;5.888;2023-02-03T06:13:58;11.82;;;1.02;;
37641;SDS011;23486;51.956;5.888;2023-02-03T06:16:24;10.57;;;1.20;;
37641;SDS011;23486;51.956;5.888;2023-02-03T06:18:51;11.18;;;1.05;;
37641;SDS011;23486;51.956;5.888;2023-02-03T06:21:18;10.95;;;1.05;;
37641;SDS011;23486;51.956;5.888;2023-02-03T06:23:44;11.60;;;1.30;;
37641;SDS011;23486;51.956;5.888;2023-02-03T06:26:09;12.50;;;1.10;;
37641;SDS011;23486;51.956;5.888;2023-02-03T06:28:35;14.45;;;1.13;;
37641;SDS011;23486;51.956;5.888;2023-02-03T06:31:06;9.13;;;1.08;;
37641;SDS011;23486;51.956;5.888;2023-02-03T06:33:32;12.63;;;2.35;;
37641;SDS011;23486;51.956;5.888;2023-02-03T06:35:58;12.93;;;1.73;;
37641;SDS011;23486;51.956;5.888;2023-02-03T06:38:23;9.05;;;0.70;;
37641;SDS011;23486;51.956;5.888;2023-02-03T06:40:52;8.52;;;1.00;;
37641;SDS011;23486;51.956;5.888;2023-02-03T06:43:18;14.32;;;1.30;;
37641;SDS011;23486;51.956;5.888;2023-02-03T06:45:44;17.67;;;1.38;;
37641;SDS011;23486;51.956;5.888;2023-02-03T06:48:11;8.70;;;1.20;;
37641;SDS011;23486;51.956;5.888;2023-02-03T06:50:40;9.93;;;1.20;;
37641;SDS011;23486;51.956;5.888;2023-02-03T06:53:06;8.25;;;0.90;;
37641;SDS011;23486;51.956;5.888;2023-02-03T06:55:32;12.30;;;0.98;;
37641;SDS011;23486;51.956;5.888;2023-02-03T06:57:57;8.55;;;1.25;;
37641;SDS011;23486;51.956;5.888;2023-02-03T07:00:23;9.32;;;1.15;;
37641;SDS011;23486;51.956;5.888;2023-02-03T07:02:55;6.88;;;1.08;;
37641;SDS011;23486;51.956;5.888;2023-02-03T07:05:21;12.20;;;1.00;;
37641;SDS011;23486;51.956;5.888;2023-02-03T07:07:48;9.45;;;1.17;;
37641;SDS011;23486;51.956;5.888;2023-02-03T07:10:17;15.98;;;1.83;;
37641;SDS011;23486;51.956;5.888;2023-02-03T07:12:45;13.48;;;1.08;;
37641;SDS011;23486;51.956;5.888;2023-02-03T07:15:11;10.40;;;1.15;;
37641;SDS011;23486;51.956;5.888;2023-02-03T07:17:37;15.27;;;1.27;;
37641;SDS011;23486;51.956;5.888;2023-02-03T07:20:03;10.52;;;1.17;;
37641;SDS011;23486;51.956;5.888;2023-02-03T07:22:29;10.63;;;1.20;;
37641;SDS011;23486;51.956;5.888;2023-02-03T07:24:55;9.40;;;1.55;;
37641;SDS011;23486;51.956;5.888;2023-02-03T07:27:21;14.43;;;1.42;;
37641;SDS011;23486;51.956;5.888;2023-02-03T07:29:46;11.98;;;1.20;;
37641;SDS011;23486;51.956;5.888;2023-02-03T07:32:12;10.38;;;1.30;;
37641;SDS011;23486;51.956;5.888;2023-02-03T07:34:38;10.32;;;1.23;;
37641;SDS011;23486;51.956;5.888;2023-02-03T07:37:03;7.47;;;1.52;;
37641;SDS011;23486;51.956;5.888;2023-02-03T07:39:29;13.50;;;1.30;;
37641;SDS011;23486;51.956;5.888;2023-02-03T07:41:54;12.48;;;1.75;;
37641;SDS011;23486;51.956;5.888;2023-02-03T07:44:20;13.07;;;1.25;;
37641;SDS011;23486;51.956;5.888;2023-02-03T07:46:45;13.13;;;1.90;;
37641;SDS011;23486;51.956;5.888;2023-02-03T07:49:11;8.77;;;1.38;;
37641;SDS011;23486;51.956;5.888;2023-02-03T07:51:40;15.68;;;0.80;;
37641;SDS011;23486;51.956;5.888;2023-02-03T07:54:06;9.40;;;0.80;;
37641;SDS011;23486;51.956;5.888;2023-02-03T07:56:32;8.38;;;1.00;;
37641;SDS011;23486;51.956;5.888;2023-02-03T07:58:58;8.68;;;1.85;;
37641;SDS011;23486;51.956;5.888;2023-02-03T08:01:24;14.80;;;2.20;;
37641;SDS011;23486;51.956;5.888;2023-02-03T08:03:49;9.27;;;1.15;;
37641;SDS011;23486;51.956;5.888;2023-02-03T08:06:15;15.77;;;1.83;;
37641;SDS011;23486;51.956;5.888;2023-02-03T08:08:40;9.43;;;1.42;;
37641;SDS011;23486;51.956;5.888;2023-02-03T08:11:12;9.38;;;1.20;;
37641;SDS011;23486;51.956;5.888;2023-02-03T08:13:38;11.60;;;1.20;;
37641;SDS011;23486;51.956;5.888;2023-02-03T08:16:03;8.68;;;1.02;;
37641;SDS011;23486;51.956;5.888;2023-02-03T08:18:29;12.15;;;1.20;;
37641;SDS011;23486;51.956;5.888;2023-02-03T08:20:55;13.70;;;1.42;;
37641;SDS011;23486;51.956;5.888;2023-02-03T08:23:20;9.32;;;1.00;;
37641;SDS011;23486;51.956;5.888;2023-02-03T08:25:49;10.23;;;1.45;;
37641;SDS011;23486;51.956;5.888;2023-02-03T08:28:16;12.27;;;1.48;;
37641;SDS011;23486;51.956;5.888;2023-02-03T08:30:42;11.07;;;0.90;;
37641;SDS011;23486;51.956;5.888;2023-02-03T08:33:10;6.05;;;0.80;;
37641;SDS011;23486;51.956;5.888;2023-02-03T08:35:36;13.13;;;1.30;;
37641;SDS011;23486;51.956;5.888;2023-02-03T08:38:02;10.07;;;1.63;;
37641;SDS011;23486;51.956;5.888;2023-02-03T08:40:27;7.75;;;1.38;;
37641;SDS011;23486;51.956;5.888;2023-02-03T08:42:53;9.52;;;1.13;;
37641;SDS011;23486;51.956;5.888;2023-02-03T08:45:20;10.48;;;1.40;;
37641;SDS011;23486;51.956;5.888;2023-02-03T08:47:45;12.18;;;1.73;;
37641;SDS011;23486;51.956;5.888;2023-02-03T08:50:11;11.50;;;1.42;;
37641;SDS011;23486;51.956;5.888;2023-02-03T08:52:37;8.30;;;1.00;;
37641;SDS011;23486;51.956;5.888;2023-02-03T08:55:03;12.23;;;1.88;;
37641;SDS011;23486;51.956;5.888;2023-02-03T08:57:33;12.52;;;1.58;;
37641;SDS011;23486;51.956;5.888;2023-02-03T08:59:59;10.75;;;1.42;;
37641;SDS011;23486;51.956;5.888;2023-02-03T09:02:29;7.85;;;1.13;;
37641;SDS011;23486;51.956;5.888;2023-02-03T09:04:54;11.40;;;1.35;;
37641;SDS011;23486;51.956;5.888;2023-02-03T09:07:20;9.18;;;1.20;;
37641;SDS011;23486;51.956;5.888;2023-02-03T09:09:46;8.75;;;1.38;;
37641;SDS011;23486;51.956;5.888;2023-02-03T09:12:12;11.13;;;1.50;;
37641;SDS011;23486;51.956;5.888;2023-02-03T09:14:38;15.90;;;1.25;;
37641;SDS011;23486;51.956;5.888;2023-02-03T09:17:04;7.32;;;0.90;;
37641;SDS011;23486;51.956;5.888;2023-02-03T09:19:32;13.13;;;1.23;;
37641;SDS011;23486;51.956;5.888;2023-02-03T09:21:57;12.23;;;1.58;;
37641;SDS011;23486;51.956;5.888;2023-02-03T09:24:23;11.27;;;1.60;;
37641;SDS011;23486;51.956;5.888;2023-02-03T09:26:49;7.97;;;1.15;;
37641;SDS011;23486;51.956;5.888;2023-02-03T09:29:15;5.68;;;0.95;;
37641;SDS011;23486;51.956;5.888;2023-02-03T09:31:41;8.95;;;1.23;;
37641;SDS011;23486;51.956;5.888;2023-02-03T09:34:07;14.57;;;1.67;;
37641;SDS011;23486;51.956;5.888;2023-02-03T09:36:33;10.38;;;1.10;;
37641;SDS011;23486;51.956;5.888;2023-02-03T09:38:59;6.93;;;0.82;;
37641;SDS011;23486;51.956;5.888;2023-02-03T09:46:39;10.80;;;0.93;;
37641;SDS011;23486;51.956;5.888;2023-02-03T09:51:43;7.82;;;0.90;;
37641;SDS011;23486;51.956;5.888;2023-02-03T09:57:15;7.53;;;0.98;;
37641;SDS011;23486;51.956;5.888;2023-02-03T09:59:48;11.95;;;1.48;;
37641;SDS011;23486;51.956;5.888;2023-02-03T10:05:14;10.80;;;1.33;;
37641;SDS011;23486;51.956;5.888;2023-02-03T10:15:47;7.97;;;0.85;;
37641;SDS011;23486;51.956;5.888;2023-02-03T10:18:38;7.63;;;0.88;;
37641;SDS011;23486;51.956;5.888;2023-02-03T10:21:13;7.60;;;0.98;;
37641;SDS011;23486;51.956;5.888;2023-02-03T10:23:45;8.65;;;1.05;;
37641;SDS011;23486;51.956;5.888;2023-02-03T10:26:19;10.70;;;0.93;;
37641;SDS011;23486;51.956;5.888;2023-02-03T10:28:53;12.13;;;1.80;;
37641;SDS011;23486;51.956;5.888;2023-02-03T10:31:22;10.63;;;1.30;;
37641;SDS011;23486;51.956;5.888;2023-02-03T10:33:59;5.63;;;1.02;;
37641;SDS011;23486;51.956;5.888;2023-02-03T10:36:50;12.48;;;1.40;;
37641;SDS011;23486;51.956;5.888;2023-02-03T10:39:44;5.95;;;0.90;;
37641;SDS011;23486;51.956;5.888;2023-02-03T10:42:12;9.80;;;1.05;;
37641;SDS011;23486;51.956;5.888;2023-02-03T10:44:42;8.52;;;0.95;;
37641;SDS011;23486;51.956;5.888;2023-02-03T10:47:23;8.15;;;0.85;;
37641;SDS011;23486;51.956;5.888;2023-02-03T10:50:03;12.32;;;1.50;;
37641;SDS011;23486;51.956;5.888;2023-02-03T10:52:35;8.27;;;1.50;;
37641;SDS011;23486;51.956;5.888;2023-02-03T10:55:13;8.90;;;0.82;;
37641;SDS011;23486;51.956;5.888;2023-02-03T11:02:55;9.13;;;1.33;;
37641;SDS011;23486;51.956;5.888;2023-02-03T11:05:29;10.82;;;0.82;;
37641;SDS011;23486;51.956;5.888;2023-02-03T11:07:55;8.40;;;1.23;;
37641;SDS011;23486;51.956;5.888;2023-02-03T11:10:27;11.88;;;1.42;;
37641;SDS011;23486;51.956;5.888;2023-02-03T11:13:37;5.45;;;1.08;;
37641;SDS011;23486;51.956;5.888;2023-02-03T11:15:59;13.27;;;1.10;;
37641;SDS011;23486;51.956;5.888;2023-02-03T11:29:41;7.75;;;1.50;;
37641;SDS011;23486;51.956;5.888;2023-02-03T11:32:22;7.05;;;1.35;;
37641;SDS011;23486;51.956;5.888;2023-02-03T11:34:57;9.90;;;1.15;;
37641;SDS011;23486;51.956;5.888;2023-02-03T11:42:32;9.40;;;1.42;;
37641;SDS011;23486;51.956;5.888;2023-02-03T11:45:23;8.45;;;1.25;;
37641;SDS011;23486;51.956;5.888;2023-02-03T11:47:50;11.77;;;1.27;;
37641;SDS011;23486;51.956;5.888;2023-02-03T12:12:54;12.30;;;1.23;;
37641;SDS011;23486;51.956;5.888;2023-02-03T12:21:29;6.45;;;1.00;;
37641;SDS011;23486;51.956;5.888;2023-02-03T12:27:13;11.73;;;1.05;;
37641;SDS011;23486;51.956;5.888;2023-02-03T12:30:05;6.63;;;1.00;;
37641;SDS011;23486;51.956;5.888;2023-02-03T12:32:51;6.65;;;1.02;;
37641;SDS011;23486;51.956;5.888;2023-02-03T12:35:37;6.47;;;0.90;;
37641;SDS011;23486;51.956;5.888;2023-02-03T12:38:14;10.98;;;1.13;;
37641;SDS011;23486;51.956;5.888;2023-02-03T12:41:03;8.95;;;1.27;;
37641;SDS011;23486;51.956;5.888;2023-02-03T12:43:57;8.77;;;1.52;;
37641;SDS011;23486;51.956;5.888;2023-02-03T12:46:41;10.00;;;1.98;;
37641;SDS011;23486;51.956;5.888;2023-02-03T12:49:28;8.02;;;1.80;;
37641;SDS011;23486;51.956;5.888;2023-02-03T12:52:11;12.38;;;1.65;;
37641;SDS011;23486;51.956;5.888;2023-02-03T12:57:59;10.35;;;1.67;;
37641;SDS011;23486;51.956;5.888;2023-02-03T13:08:34;18.70;;;2.72;;
37641;SDS011;23486;51.956;5.888;2023-02-03T13:13:41;22.02;;;2.33;;
37641;SDS011;23486;51.956;5.888;2023-02-03T13:16:14;17.15;;;1.58;;
37641;SDS011;23486;51.956;5.888;2023-02-03T13:18:49;13.18;;;1.83;;
37641;SDS011;23486;51.956;5.888;2023-02-03T13:21:20;19.90;;;2.85;;
37641;SDS011;23486;51.956;5.888;2023-02-03T13:23:47;13.27;;;2.28;;
37641;SDS011;23486;51.956;5.888;2023-02-03T13:26:33;23.95;;;3.92;;
37641;SDS011;23486;51.956;5.888;2023-02-03T13:29:24;18.25;;;2.75;;
37641;SDS011;23486;51.956;5.888;2023-02-03T13:32:33;18.33;;;3.28;;
37641;SDS011;23486;51.956;5.888;2023-02-03T13:43:09;18.02;;;2.90;;
37641;SDS011;23486;51.956;5.888;2023-02-03T13:45:40;15.40;;;3.40;;
37641;SDS011;23486;51.956;5.888;2023-02-03T13:48:11;23.85;;;3.97;;
37641;SDS011;23486;51.956;5.888;2023-02-03T13:50:41;23.02;;;3.17;;
37641;SDS011;23486;51.956;5.888;2023-02-03T13:53:19;28.23;;;3.78;;
37641;SDS011;23486;51.956;5.888;2023-02-03T13:55:54;16.30;;;3.17;;
37641;SDS011;23486;51.956;5.888;2023-02-03T13:58:24;17.17;;;3.85;;
37641;SDS011;23486;51.956;5.888;2023-02-03T14:05:44;20.25;;;3.30;;
37641;SDS011;23486;51.956;5.888;2023-02-03T14:13:52;20.00;;;3.15;;
37641;SDS011;23486;51.956;5.888;2023-02-03T14:16:39;18.60;;;3.55;;
37641;SDS011;23486;51.956;5.888;2023-02-03T14:19:12;18.30;;;2.80;;
37641;SDS011;23486;51.956;5.888;2023-02-03T14:21:58;19.25;;;3.33;;
37641;SDS011;23486;51.956;5.888;2023-02-03T14:24:39;17.45;;;2.97;;
37641;SDS011;23486;51.956;5.888;2023-02-03T14:27:28;20.65;;;2.58;;
37641;SDS011;23486;51.956;5.888;2023-02-03T14:30:02;17.58;;;2.30;;
37641;SDS011;23486;51.956;5.888;2023-02-03T14:32:50;17.40;;;1.85;;
37641;SDS011;23486;51.956;5.888;2023-02-03T14:35:34;22.70;;;3.47;;
37641;SDS011;23486;51.956;5.888;2023-02-03T14:38:05;17.63;;;2.47;;
37641;SDS011;23486;51.956;5.888;2023-02-03T14:40:49;20.80;;;2.35;;
37641;SDS011;23486;51.956;5.888;2023-02-03T14:43:29;21.52;;;2.25;;
37641;SDS011;23486;51.956;5.888;2023-02-03T14:49:09;23.73;;;2.80;;
37641;SDS011;23486;51.956;5.888;2023-02-03T14:52:06;16.33;;;2.40;;
37641;SDS011;23486;51.956;5.888;2023-02-03T14:57:44;26.38;;;2.30;;
37641;SDS011;23486;51.956;5.888;2023-02-03T15:00:25;29.75;;;2.47;;
37641;SDS011;23486;51.956;5.888;2023-02-03T15:08:27;26.92;;;2.58;;
37641;SDS011;23486;51.956;5.888;2023-02-03T15:13:48;25.88;;;2.97;;
37641;SDS011;23486;51.956;5.888;2023-02-03T15:16:18;24.88;;;2.45;;
37641;SDS011;23486;51.956;5.888;2023-02-03T15:18:58;23.90;;;3.25;;
37641;SDS011;23486;51.956;5.888;2023-02-03T15:21:26;16.75;;;1.90;;
37641;SDS011;23486;51.956;5.888;2023-02-03T15:23:52;24.73;;;2.05;;
37641;SDS011;23486;51.956;5.888;2023-02-03T15:26:22;25.77;;;2.35;;
37641;SDS011;23486;51.956;5.888;2023-02-03T15:28:56;22.05;;;3.33;;
37641;SDS011;23486;51.956;5.888;2023-02-03T15:31:41;21.90;;;2.92;;
37641;SDS011;23486;51.956;5.888;2023-02-03T15:36:53;18.90;;;2.58;;
37641;SDS011;23486;51.956;5.888;2023-02-03T15:42:30;18.23;;;2.95;;
37641;SDS011;23486;51.956;5.888;2023-02-03T15:48:11;22.73;;;2.88;;
37641;SDS011;23486;51.956;5.888;2023-02-03T15:54:01;28.13;;;3.67;;
37641;SDS011;23486;51.956;5.888;2023-02-03T15:56:37;25.20;;;2.58;;
37641;SDS011;23486;51.956;5.888;2023-02-03T15:59:18;22.77;;;3.38;;
37641;SDS011;23486;51.956;5.888;2023-02-03T16:01:46;21.65;;;3.53;;
37641;SDS011;23486;51.956;5.888;2023-02-03T16:04:12;14.30;;;2.97;;
37641;SDS011;23486;51.956;5.888;2023-02-03T16:06:38;19.60;;;2.53;;
37641;SDS011;23486;51.956;5.888;2023-02-03T16:09:24;18.55;;;2.08;;
37641;SDS011;23486;51.956;5.888;2023-02-03T16:14:56;24.67;;;2.58;;
37641;SDS011;23486;51.956;5.888;2023-02-03T16:17:27;16.77;;;2.30;;
37641;SDS011;23486;51.956;5.888;2023-02-03T16:22:40;21.15;;;2.75;;
37641;SDS011;23486;51.956;5.888;2023-02-03T16:25:26;25.23;;;2.70;;
37641;SDS011;23486;51.956;5.888;2023-02-03T16:30:54;26.08;;;2.78;;
37641;SDS011;23486;51.956;5.888;2023-02-03T16:33:48;22.42;;;2.42;;
37641;SDS011;23486;51.956;5.888;2023-02-03T16:36:37;21.95;;;3.05;;
37641;SDS011;23486;51.956;5.888;2023-02-03T16:39:24;24.40;;;3.63;;
37641;SDS011;23486;51.956;5.888;2023-02-03T16:42:13;25.15;;;4.35;;
37641;SDS011;23486;51.956;5.888;2023-02-03T16:44:59;15.27;;;2.22;;
37641;SDS011;23486;51.956;5.888;2023-02-03T16:47:44;19.33;;;2.10;;
37641;SDS011;23486;51.956;5.888;2023-02-03T16:50:29;24.10;;;4.60;;
37641;SDS011;23486;51.956;5.888;2023-02-03T16:53:17;26.42;;;3.53;;
37641;SDS011;23486;51.956;5.888;2023-02-03T16:55:48;25.42;;;3.47;;
37641;SDS011;23486;51.956;5.888;2023-02-03T16:58:21;25.67;;;3.13;;
37641;SDS011;23486;51.956;5.888;2023-02-03T17:00:54;28.85;;;2.97;;
37641;SDS011;23486;51.956;5.888;2023-02-03T17:03:22;24.05;;;3.08;;
37641;SDS011;23486;51.956;5.888;2023-02-03T17:05:52;24.13;;;2.88;;
37641;SDS011;23486;51.956;5.888;2023-02-03T17:08:20;22.95;;;2.90;;
37641;SDS011;23486;51.956;5.888;2023-02-03T17:10:49;29.50;;;2.67;;
37641;SDS011;23486;51.956;5.888;2023-02-03T17:13:16;20.48;;;3.17;;
37641;SDS011;23486;51.956;5.888;2023-02-03T17:15:44;24.98;;;2.63;;
37641;SDS011;23486;51.956;5.888;2023-02-03T17:18:11;23.48;;;3.38;;
37641;SDS011;23486;51.956;5.888;2023-02-03T17:20:41;35.10;;;3.88;;
37641;SDS011;23486;51.956;5.888;2023-02-03T17:23:08;25.20;;;3.22;;
37641;SDS011;23486;51.956;5.888;2023-02-03T17:25:34;21.98;;;3.08;;
37641;SDS011;23486;51.956;5.888;2023-02-03T17:28:01;22.63;;;2.80;;
37641;SDS011;23486;51.956;5.888;2023-02-03T17:30:27;21.17;;;2.85;;
37641;SDS011;23486;51.956;5.888;2023-02-03T17:32:57;21.17;;;2.10;;
37641;SDS011;23486;51.956;5.888;2023-02-03T17:35:24;25.35;;;3.08;;
37641;SDS011;23486;51.956;5.888;2023-02-03T17:37:55;22.83;;;3.22;;
37641;SDS011;23486;51.956;5.888;2023-02-03T17:40:21;21.02;;;2.30;;
37641;SDS011;23486;51.956;5.888;2023-02-03T17:43:04;21.42;;;2.40;;
37641;SDS011;23486;51.956;5.888;2023-02-03T17:45:30;21.70;;;2.42;;
37641;SDS011;23486;51.956;5.888;2023-02-03T17:47:56;24.13;;;3.33;;
37641;SDS011;23486;51.956;5.888;2023-02-03T17:50:23;23.65;;;3.35;;
37641;SDS011;23486;51.956;5.888;2023-02-03T17:52:49;29.10;;;3.08;;